createdAt,value
2023-02-12T00:01:11.373Z,60.05
2023-02-12T00:03:39.595Z,50.67
2023-02-12T00:06:08.020Z,52.88
2023-02-12T00:08:35.747Z,54.63
2023-02-12T00:11:16.723Z,49.38
2023-02-12T00:13:44.066Z,57.40
2023-02-12T00:16:14.743Z,55.67
2023-02-12T00:18:42.424Z,54.08
2023-02-12T00:21:09.726Z,50.50
2023-02-12T00:23:37.972Z,54.80
2023-02-12T00:26:09.545Z,52.72
2023-02-12T00:28:38.219Z,46.53
2023-02-12T00:31:13.573Z,50.60
2023-02-12T00:36:09.090Z,51.42
2023-02-12T00:38:36.309Z,55.72
2023-02-12T00:41:03.637Z,51.08
2023-02-12T00:43:30.873Z,55.00
2023-02-12T00:45:58.705Z,53.50
2023-02-12T00:48:27.412Z,57.15
2023-02-12T00:50:54.403Z,60.30
2023-02-12T00:53:21.617Z,49.45
2023-02-12T00:55:48.724Z,50.97
2023-02-12T00:58:18.887Z,52.70
2023-02-12T01:00:46.560Z,51.75
2023-02-12T01:03:13.705Z,50.55
2023-02-12T01:05:41.143Z,60.42
2023-02-12T01:08:08.159Z,61.88
2023-02-12T01:10:35.150Z,59.33
2023-02-12T01:13:02.380Z,51.47
2023-02-12T01:15:29.577Z,52.22
2023-02-12T01:17:57.177Z,50.15
2023-02-12T01:20:25.483Z,57.30
2023-02-12T01:22:53.268Z,55.22
2023-02-12T01:25:20.879Z,53.55
2023-02-12T01:27:48.170Z,60.10
2023-02-12T01:30:16.707Z,51.85
2023-02-12T01:32:44.433Z,49.60
2023-02-12T01:35:12.192Z,49.85
2023-02-12T01:37:41.554Z,51.53
2023-02-12T01:40:10.623Z,51.67
2023-02-12T01:42:37.606Z,48.10
2023-02-12T01:45:13.667Z,49.65
2023-02-12T01:47:45.505Z,53.15
2023-02-12T01:50:17.574Z,55.03
2023-02-12T01:52:48.940Z,60.60
2023-02-12T01:55:16.617Z,61.15
2023-02-12T01:57:46.580Z,49.42
2023-02-12T02:00:19.902Z,47.67
2023-02-12T02:02:51.468Z,49.20
2023-02-12T02:05:35.579Z,50.55
2023-02-12T02:08:02.811Z,54.40
2023-02-12T02:10:31.306Z,48.50
2023-02-12T02:13:17.457Z,47.97
2023-02-12T02:15:49.160Z,45.17
2023-02-12T02:18:55.915Z,48.63
2023-02-12T02:24:30.941Z,48.25
2023-02-12T02:27:16.402Z,44.50
2023-02-12T02:29:43.516Z,46.45
2023-02-12T02:32:23.433Z,45.03
2023-02-12T02:35:00.136Z,47.88
2023-02-12T02:37:30.412Z,45.75
2023-02-12T02:40:11.716Z,48.65
2023-02-12T02:42:52.484Z,46.60
2023-02-12T02:45:43.315Z,48.53
2023-02-12T02:48:20.191Z,45.67
2023-02-12T02:50:52.921Z,46.45
2023-02-12T02:53:31.602Z,45.80
2023-02-12T02:56:02.363Z,48.65
2023-02-12T02:58:36.466Z,46.97
2023-02-12T03:01:10.065Z,45.80
2023-02-12T03:03:48.784Z,49.75
2023-02-12T03:06:25.188Z,45.50
2023-02-12T03:09:05.722Z,48.47
2023-02-12T03:11:34.757Z,49.00
2023-02-12T03:14:14.146Z,45.25
2023-02-12T03:16:58.569Z,51.65
2023-02-12T03:19:29.694Z,48.10
2023-02-12T03:22:08.629Z,50.17
2023-02-12T03:25:09.982Z,49.00
2023-02-12T03:27:41.811Z,46.38
2023-02-12T03:30:10.394Z,50.47
2023-02-12T03:33:00.856Z,46.17
2023-02-12T03:35:57.788Z,45.17
2023-02-12T03:38:46.979Z,49.10
2023-02-12T03:41:17.202Z,49.08
2023-02-12T03:43:55.105Z,44.30
2023-02-12T03:46:47.259Z,49.05
2023-02-12T03:49:54.075Z,45.90
2023-02-12T03:52:21.974Z,43.00
2023-02-12T03:54:49.073Z,45.42
2023-02-12T03:57:27.710Z,47.40
2023-02-12T03:59:54.798Z,41.70
2023-02-12T04:02:21.835Z,43.40
2023-02-12T04:04:49.453Z,45.92
2023-02-12T04:07:17.587Z,46.85
2023-02-12T04:09:44.771Z,46.20
2023-02-12T04:12:31.055Z,44.78
2023-02-12T04:15:13.131Z,50.05
2023-02-12T04:18:12.949Z,47.10
2023-02-12T04:21:00.399Z,50.95
2023-02-12T04:23:48.701Z,42.85
2023-02-12T04:26:39.678Z,45.42
2023-02-12T04:29:34.212Z,48.67
2023-02-12T04:32:33.791Z,49.05
2023-02-12T04:35:24.016Z,44.00
2023-02-12T04:38:25.496Z,47.63
2023-02-12T04:40:53.725Z,49.53
2023-02-12T04:43:37.708Z,44.63
2023-02-12T04:46:06.770Z,42.53
2023-02-12T04:48:37.103Z,42.47
2023-02-12T04:51:04.429Z,42.67
2023-02-12T04:53:31.542Z,41.00
2023-02-12T04:55:58.686Z,44.60
2023-02-12T04:58:25.608Z,42.53
2023-02-12T05:00:52.635Z,40.28
2023-02-12T05:03:19.617Z,37.72
2023-02-12T05:05:46.659Z,44.20
2023-02-12T05:08:13.653Z,43.03
2023-02-12T05:10:40.685Z,42.25
2023-02-12T05:13:07.599Z,39.55
2023-02-12T05:15:34.840Z,44.15
2023-02-12T05:18:01.835Z,40.75
2023-02-12T05:20:28.929Z,43.17
2023-02-12T05:22:56.180Z,41.40
2023-02-12T05:25:23.365Z,39.45
2023-02-12T05:27:50.360Z,41.20
2023-02-12T05:30:17.610Z,41.03
2023-02-12T05:32:44.471Z,46.08
2023-02-12T05:35:11.779Z,35.83
2023-02-12T05:37:38.962Z,40.60
2023-02-12T05:40:07.161Z,37.97
2023-02-12T05:42:34.168Z,40.70
2023-02-12T05:45:01.543Z,42.17
2023-02-12T05:47:28.541Z,39.17
2023-02-12T05:49:55.605Z,38.80
2023-02-12T05:52:22.583Z,37.05
2023-02-12T05:54:50.672Z,39.20
2023-02-12T05:57:17.791Z,35.88
2023-02-12T05:59:44.838Z,38.20
2023-02-12T06:02:11.906Z,39.33
2023-02-12T06:04:39.206Z,37.22
2023-02-12T06:07:07.402Z,39.10
2023-02-12T06:09:35.357Z,38.92
2023-02-12T06:12:02.498Z,37.20
2023-02-12T06:14:31.908Z,43.13
2023-02-12T06:16:59.183Z,39.42
2023-02-12T06:19:26.230Z,40.17
2023-02-12T06:21:53.199Z,37.97
2023-02-12T06:24:20.326Z,37.42
2023-02-12T06:26:50.788Z,43.22
2023-02-12T06:29:19.238Z,38.05
2023-02-12T06:31:46.712Z,42.60
2023-02-12T06:34:16.815Z,35.22
2023-02-12T06:36:45.998Z,36.35
2023-02-12T06:39:15.629Z,39.38
2023-02-12T06:41:44.080Z,37.85
2023-02-12T06:44:12.443Z,38.63
2023-02-12T06:46:39.570Z,36.78
2023-02-12T06:49:07.319Z,36.10
2023-02-12T06:51:36.526Z,38.70
2023-02-12T06:54:03.840Z,36.03
2023-02-12T06:56:30.718Z,36.72
2023-02-12T06:59:02.015Z,34.88
2023-02-12T07:01:30.640Z,33.78
2023-02-12T07:04:02.973Z,35.42
2023-02-12T07:06:32.069Z,35.13
2023-02-12T07:08:59.554Z,37.42
2023-02-12T07:11:29.079Z,36.58
2023-02-12T07:13:56.396Z,38.33
2023-02-12T07:16:23.717Z,36.47
2023-02-12T07:18:51.305Z,36.35
2023-02-12T07:21:19.460Z,34.55
2023-02-12T07:23:50.868Z,35.53
2023-02-12T07:26:19.310Z,35.60
2023-02-12T07:28:46.272Z,35.42
2023-02-12T07:31:21.929Z,35.72
2023-02-12T07:33:50.032Z,35.28
2023-02-12T07:36:20.146Z,35.67
2023-02-12T07:38:47.747Z,32.90
2023-02-12T07:41:20.582Z,35.47
2023-02-12T07:43:50.072Z,36.08
2023-02-12T07:46:30.181Z,34.70
2023-02-12T07:48:59.400Z,33.45
2023-02-12T07:51:27.931Z,32.90
2023-02-12T07:53:55.521Z,34.83
2023-02-12T07:56:25.308Z,35.67
2023-02-12T07:58:53.733Z,32.13
2023-02-12T08:01:35.786Z,31.20
2023-02-12T08:04:05.651Z,39.28
2023-02-12T08:06:35.041Z,32.63
2023-02-12T08:09:04.918Z,35.42
2023-02-12T08:11:32.485Z,33.03
2023-02-12T08:14:00.215Z,29.58
2023-02-12T08:16:28.930Z,34.67
2023-02-12T08:19:02.362Z,30.80
2023-02-12T08:21:34.846Z,29.67
2023-02-12T08:24:02.358Z,36.22
2023-02-12T08:26:32.007Z,34.50
2023-02-12T08:29:12.107Z,31.63
2023-02-12T08:31:41.816Z,31.80
2023-02-12T08:34:17.903Z,34.97
2023-02-12T08:36:46.269Z,32.05
2023-02-12T08:39:13.580Z,34.47
2023-02-12T08:41:42.449Z,30.85
2023-02-12T08:44:10.474Z,34.53
2023-02-12T08:46:40.067Z,33.30
2023-02-12T08:49:14.437Z,30.13
2023-02-12T08:51:45.456Z,29.50
2023-02-12T08:54:14.864Z,29.10
2023-02-12T08:56:42.270Z,34.85
2023-02-12T08:59:10.992Z,35.42
2023-02-12T09:01:39.523Z,32.03
2023-02-12T09:04:07.542Z,30.88
2023-02-12T09:06:35.855Z,30.30
2023-02-12T09:09:05.738Z,28.92
2023-02-12T09:11:35.355Z,30.00
2023-02-12T09:14:05.584Z,29.50
2023-02-12T09:16:36.446Z,30.88
2023-02-12T09:19:04.393Z,29.65
2023-02-12T09:21:31.565Z,29.52
2023-02-12T09:23:58.642Z,28.30
2023-02-12T09:26:26.322Z,31.67
2023-02-12T09:28:54.872Z,33.28
2023-02-12T09:31:27.925Z,26.77
2023-02-12T09:33:59.265Z,30.67
2023-02-12T09:36:26.391Z,30.67
2023-02-12T09:38:54.611Z,28.25
2023-02-12T09:41:33.620Z,26.42
2023-02-12T09:44:31.203Z,27.35
2023-02-12T09:47:32.631Z,28.55
2023-02-12T09:50:46.468Z,25.55
2023-02-12T09:53:17.743Z,27.42
2023-02-12T09:55:46.212Z,29.23
2023-02-12T09:58:29.657Z,24.90
2023-02-12T10:00:57.256Z,25.52
2023-02-12T10:03:33.575Z,28.90
2023-02-12T10:06:07.788Z,27.42
2023-02-12T10:08:52.566Z,25.45
2023-02-12T10:11:22.447Z,25.80
2023-02-12T10:14:10.772Z,26.58
2023-02-12T10:16:43.970Z,30.92
2023-02-12T10:19:23.192Z,25.17
2023-02-12T10:22:05.242Z,29.08
2023-02-12T10:25:09.226Z,32.75
2023-02-12T10:27:44.197Z,41.00
2023-02-12T10:30:24.425Z,29.38
2023-02-12T10:32:59.115Z,31.80
2023-02-12T10:35:26.950Z,31.13
2023-02-12T10:38:16.152Z,31.83
2023-02-12T10:40:45.394Z,28.13
2023-02-12T10:43:15.480Z,27.70
2023-02-12T10:45:44.753Z,26.33
2023-02-12T10:48:11.760Z,29.00
2023-02-12T10:50:50.004Z,29.65
2023-02-12T10:53:25.815Z,32.08
2023-02-12T10:56:25.806Z,31.40
2023-02-12T10:58:57.704Z,31.63
2023-02-12T11:01:34.924Z,32.10
2023-02-12T11:04:20.471Z,30.88
2023-02-12T11:07:17.506Z,35.80
2023-02-12T11:09:50.230Z,34.50
2023-02-12T11:12:43.608Z,33.20
2023-02-12T11:15:15.584Z,29.60
2023-02-12T11:17:45.220Z,33.83
2023-02-12T11:20:18.658Z,32.70
2023-02-12T11:23:01.130Z,36.67
2023-02-12T11:25:34.937Z,33.95
2023-02-12T11:28:04.083Z,38.10
2023-02-12T11:30:32.165Z,34.60
2023-02-12T11:33:24.713Z,37.67
2023-02-12T11:36:19.836Z,32.45
2023-02-12T11:38:56.191Z,33.15
2023-02-12T11:41:41.095Z,30.77
2023-02-12T11:44:39.407Z,31.65
2023-02-12T11:47:16.912Z,32.75
2023-02-12T11:49:52.203Z,34.55
2023-02-12T11:52:25.715Z,49.63
2023-02-12T11:54:56.837Z,32.42
2023-02-12T11:57:47.404Z,29.83
2023-02-12T12:00:23.293Z,31.63
2023-02-12T12:03:19.461Z,31.45
2023-02-12T12:05:51.215Z,32.78
2023-02-12T12:26:40.646Z,32.70
2023-02-12T12:33:42.707Z,31.02
2023-02-12T12:36:49.975Z,27.45
2023-02-12T12:39:55.310Z,28.52
2023-02-12T12:42:50.606Z,28.15
2023-02-12T12:45:56.247Z,25.50
2023-02-12T12:48:42.888Z,25.57
2023-02-12T12:51:53.126Z,25.85
2023-02-12T12:54:40.833Z,26.40
2023-02-12T12:57:45.654Z,26.55
2023-02-12T13:00:32.853Z,28.55
2023-02-12T13:03:19.083Z,27.73
2023-02-12T13:09:28.741Z,41.70
2023-02-12T13:12:40.924Z,31.27
2023-02-12T13:15:26.024Z,28.73
2023-02-12T13:18:20.948Z,28.17
2023-02-12T13:20:58.067Z,28.23
2023-02-12T13:23:42.752Z,26.13
2023-02-12T13:26:24.215Z,29.25
2023-02-12T13:29:12.337Z,27.25
2023-02-12T13:31:52.149Z,31.20
2023-02-12T13:34:20.961Z,28.10
2023-02-12T13:36:49.680Z,42.83
2023-02-12T13:39:43.397Z,28.35
2023-02-12T13:42:36.524Z,28.42
2023-02-12T13:45:24.816Z,27.45
2023-02-12T13:48:03.246Z,31.67
2023-02-12T13:51:00.093Z,28.25
2023-02-12T13:53:46.579Z,29.75
2023-02-12T13:56:31.740Z,29.65
2023-02-12T13:59:00.898Z,29.60
2023-02-12T14:01:47.363Z,29.52
2023-02-12T14:04:21.398Z,30.95
2023-02-12T14:07:06.870Z,28.40
2023-02-12T14:09:45.737Z,30.10
2023-02-12T14:12:26.417Z,31.30
2023-02-12T14:15:03.576Z,29.88
2023-02-12T14:17:33.383Z,31.05
2023-02-12T14:20:30.004Z,29.33
2023-02-12T14:23:21.157Z,32.97
2023-02-12T14:26:00.989Z,28.88
2023-02-12T14:28:59.202Z,30.52
2023-02-12T14:31:41.106Z,27.63
2023-02-12T14:34:08.529Z,29.67
2023-02-12T14:36:39.192Z,27.38
2023-02-12T14:39:30.129Z,26.10
2023-02-12T14:42:17.140Z,27.00
2023-02-12T14:44:59.220Z,27.02
2023-02-12T14:47:29.245Z,29.52
2023-02-12T14:50:02.688Z,31.35
2023-02-12T14:52:39.887Z,33.42
2023-02-12T14:55:20.898Z,33.95
2023-02-12T14:57:48.380Z,37.22
2023-02-12T15:00:27.771Z,35.47
2023-02-12T15:02:58.895Z,36.47
2023-02-12T15:05:34.868Z,40.13
2023-02-12T15:08:14.131Z,39.95
2023-02-12T15:10:53.122Z,36.53
2023-02-12T15:13:30.297Z,37.25
2023-02-12T15:16:08.549Z,42.50
2023-02-12T15:18:41.860Z,38.95
2023-02-12T15:21:24.300Z,42.60
2023-02-12T15:24:25.425Z,43.63
2023-02-12T15:26:55.184Z,44.67
2023-02-12T15:29:29.797Z,41.83
2023-02-12T15:32:01.866Z,39.92
2023-02-12T15:34:35.361Z,46.95
2023-02-12T15:37:04.658Z,46.20
2023-02-12T15:39:41.156Z,46.85
2023-02-12T15:42:34.364Z,52.90
2023-02-12T15:45:10.899Z,44.95
2023-02-12T15:47:38.452Z,46.00
2023-02-12T15:50:07.412Z,44.78
2023-02-12T15:52:38.465Z,45.17
2023-02-12T15:55:14.599Z,45.28
2023-02-12T15:57:42.614Z,45.95
2023-02-12T16:00:16.943Z,48.72
2023-02-12T16:02:53.784Z,44.63
2023-02-12T16:05:22.557Z,49.55
2023-02-12T16:07:50.333Z,48.22
2023-02-12T16:10:19.788Z,51.88
2023-02-12T16:12:50.431Z,45.38
2023-02-12T16:15:35.318Z,49.08
2023-02-12T16:18:05.372Z,54.25
2023-02-12T16:20:33.910Z,47.80
2023-02-12T16:23:06.633Z,44.53
2023-02-12T16:25:35.272Z,45.85
2023-02-12T16:28:30.637Z,47.15
2023-02-12T16:31:09.617Z,47.40
2023-02-12T16:33:55.089Z,47.00
2023-02-12T16:36:25.214Z,49.05
2023-02-12T16:38:54.635Z,42.13
2023-02-12T16:41:27.346Z,47.35
2023-02-12T16:43:54.486Z,47.28
2023-02-12T16:46:24.165Z,47.13
2023-02-12T16:48:54.566Z,50.70
2023-02-12T16:51:32.837Z,46.60
2023-02-12T16:54:03.112Z,44.20
2023-02-12T16:56:41.140Z,45.67
2023-02-12T16:59:09.498Z,53.67
2023-02-12T17:01:38.848Z,49.88
2023-02-12T17:04:09.427Z,51.33
2023-02-12T17:06:36.406Z,49.95
2023-02-12T17:09:03.388Z,50.70
2023-02-12T17:11:30.483Z,53.80
2023-02-12T17:13:58.101Z,55.88
2023-02-12T17:16:31.268Z,109.28
2023-02-12T17:19:00.042Z,101.88
2023-02-12T17:21:38.490Z,78.07
2023-02-12T17:24:27.727Z,66.38
2023-02-12T17:26:55.608Z,58.95
2023-02-12T17:29:24.311Z,55.60
2023-02-12T17:31:56.366Z,67.15
2023-02-12T17:34:24.479Z,65.00
2023-02-12T17:36:55.324Z,59.38
2023-02-12T17:39:22.466Z,52.40
2023-02-12T17:41:49.990Z,51.45
2023-02-12T17:44:17.790Z,47.60
2023-02-12T17:46:45.483Z,49.58
2023-02-12T17:49:13.530Z,56.35
2023-02-12T17:51:41.082Z,60.75
2023-02-12T17:54:08.662Z,60.03
2023-02-12T17:56:35.664Z,59.20
2023-02-12T17:59:06.742Z,119.22
2023-02-12T18:01:35.571Z,245.32
2023-02-12T18:04:03.289Z,235.65
2023-02-12T18:06:31.658Z,116.55
2023-02-12T18:08:59.781Z,69.15
2023-02-12T18:11:27.828Z,67.75
2023-02-12T18:13:56.938Z,58.85
2023-02-12T18:16:27.833Z,59.35
2023-02-12T18:18:55.515Z,57.97
2023-02-12T18:21:24.854Z,57.80
2023-02-12T18:23:53.722Z,58.28
2023-02-12T18:26:21.724Z,53.83
2023-02-12T18:28:49.595Z,51.60
2023-02-12T18:31:19.698Z,56.53
2023-02-12T18:33:48.515Z,55.58
2023-02-12T18:36:18.680Z,50.78
2023-02-12T18:38:49.367Z,62.38
2023-02-12T18:41:22.576Z,63.70
2023-02-12T18:43:58.800Z,66.75
2023-02-12T18:46:29.346Z,78.93
2023-02-12T18:48:56.689Z,110.80
2023-02-12T18:51:26.568Z,165.70
2023-02-12T18:54:05.283Z,73.68
2023-02-12T18:56:36.639Z,70.35
2023-02-12T18:59:05.619Z,57.53
2023-02-12T19:01:34.610Z,52.03
2023-02-12T19:04:04.695Z,57.92
2023-02-12T19:06:33.526Z,58.90
2023-02-12T19:09:04.149Z,54.83
2023-02-12T19:11:31.802Z,55.28
2023-02-12T19:13:59.769Z,53.80
2023-02-12T19:16:27.064Z,56.50
2023-02-12T19:18:56.360Z,51.75
2023-02-12T19:21:26.361Z,54.00
2023-02-12T19:23:59.988Z,56.28
2023-02-12T19:26:29.189Z,83.47
2023-02-12T19:28:57.522Z,65.30
2023-02-12T19:31:35.179Z,70.25
2023-02-12T19:34:05.259Z,66.47
2023-02-12T19:36:35.645Z,63.97
2023-02-12T19:39:05.043Z,66.80
2023-02-12T19:41:33.335Z,61.92
2023-02-12T19:44:02.167Z,62.47
2023-02-12T19:46:31.029Z,52.58
2023-02-12T19:49:03.330Z,62.88
2023-02-12T19:51:32.498Z,64.10
2023-02-12T19:54:07.099Z,54.72
2023-02-12T19:56:37.996Z,66.93
2023-02-12T19:59:07.477Z,55.17
2023-02-12T20:01:35.074Z,48.53
2023-02-12T20:04:02.679Z,44.35
2023-02-12T20:06:33.777Z,46.55
2023-02-12T20:09:01.412Z,44.28
2023-02-12T20:11:31.947Z,46.50
2023-02-12T20:13:59.621Z,47.30
2023-02-12T20:16:31.646Z,51.85
2023-02-12T20:19:02.387Z,43.45
2023-02-12T20:21:29.594Z,44.80
2023-02-12T20:23:57.684Z,47.42
2023-02-12T20:26:25.405Z,44.42
2023-02-12T20:28:52.854Z,45.40
2023-02-12T20:31:27.270Z,49.33
2023-02-12T20:33:56.331Z,41.77
2023-02-12T20:36:24.716Z,43.47
2023-02-12T20:38:56.848Z,45.28
2023-02-12T20:41:25.384Z,49.40
2023-02-12T20:43:52.868Z,44.90
2023-02-12T20:46:22.759Z,43.35
2023-02-12T20:48:50.274Z,43.60
2023-02-12T20:51:23.037Z,44.90
2023-02-12T20:53:51.604Z,45.28
2023-02-12T20:56:24.502Z,44.13
2023-02-12T20:58:52.516Z,45.47
2023-02-12T21:01:25.476Z,42.83
2023-02-12T21:03:56.148Z,42.70
2023-02-12T21:06:24.470Z,48.05
2023-02-12T21:08:51.827Z,42.63
2023-02-12T21:11:24.240Z,40.72
2023-02-12T21:13:59.199Z,40.67
2023-02-12T21:16:32.804Z,44.22
2023-02-12T21:19:00.607Z,43.45
2023-02-12T21:21:30.480Z,39.10
2023-02-12T21:23:59.784Z,39.60
2023-02-12T21:26:28.732Z,40.88
2023-02-12T21:28:58.202Z,41.63
2023-02-12T21:31:29.625Z,43.55
2023-02-12T21:33:58.454Z,45.97
2023-02-12T21:36:34.166Z,42.67
2023-02-12T21:39:01.594Z,41.90
2023-02-12T21:41:32.052Z,42.22
2023-02-12T21:44:08.228Z,44.17
2023-02-12T21:46:36.870Z,40.33
2023-02-12T21:49:05.851Z,44.35
2023-02-12T21:51:36.240Z,49.22
2023-02-12T21:54:09.229Z,43.67
2023-02-12T21:56:37.868Z,48.92
2023-02-12T21:59:05.096Z,48.83
2023-02-12T22:01:34.607Z,44.65
2023-02-12T22:04:06.042Z,43.28
2023-02-12T22:06:37.878Z,42.72
2023-02-12T22:09:09.804Z,47.20
2023-02-12T22:11:38.203Z,46.63
2023-02-12T22:14:07.442Z,44.42
2023-02-12T22:16:35.491Z,47.30
2023-02-12T22:19:03.712Z,49.13
2023-02-12T22:21:36.665Z,53.40
2023-02-12T22:24:05.841Z,47.03
2023-02-12T22:26:36.064Z,52.47
2023-02-12T22:29:06.509Z,52.92
2023-02-12T22:31:36.380Z,48.33
2023-02-12T22:34:11.534Z,54.10
2023-02-12T22:36:40.752Z,53.10
2023-02-12T22:39:08.062Z,53.15
2023-02-12T22:41:35.158Z,49.33
2023-02-12T22:44:05.015Z,52.95
2023-02-12T22:46:36.238Z,46.95
2023-02-12T22:49:03.889Z,50.08
2023-02-12T22:51:32.831Z,54.97
2023-02-12T22:54:00.546Z,51.22
2023-02-12T22:56:29.442Z,53.65
2023-02-12T22:58:58.594Z,50.45
2023-02-12T23:01:28.507Z,52.70
2023-02-12T23:03:56.089Z,49.55
2023-02-12T23:06:27.676Z,54.33
2023-02-12T23:09:01.826Z,56.53
2023-02-12T23:11:30.429Z,50.42
2023-02-12T23:14:00.547Z,60.53
2023-02-12T23:16:29.080Z,58.15
2023-02-12T23:18:58.792Z,51.40
2023-02-12T23:21:26.941Z,55.15
2023-02-12T23:23:56.150Z,57.83
2023-02-12T23:26:23.732Z,58.80
2023-02-12T23:28:51.308Z,59.70
2023-02-12T23:31:18.690Z,56.17
2023-02-12T23:33:45.927Z,61.80
2023-02-12T23:36:13.227Z,55.85
2023-02-12T23:38:40.563Z,56.72
2023-02-12T23:41:08.598Z,57.72
2023-02-12T23:43:35.932Z,59.45
2023-02-12T23:46:04.340Z,53.15
2023-02-12T23:48:31.588Z,57.45
2023-02-12T23:50:58.941Z,55.85
2023-02-12T23:53:26.329Z,58.60
2023-02-12T23:55:54.978Z,58.17
2023-02-12T23:58:22.188Z,64.55
